Time;durP1;ratioP1;P1;durP2;ratioP2;P2;SDS_P1;SDS_P2;PMS_P1;PMS_P2;Temp;Humidity;BMP_temperature;BMP_pressure;BME280_temperature;BME280_humidity;BME280_pressure;Samples;Min_cycle;Max_cycle;Signal;HPM_P1;HPM_P2
2023/09/15 00:00:36;;;;;;;;;;;18.60;70.00;;;;;;5043953;28;19980;-76
2023/09/15 00:03:03;;;;;;;;;;;18.60;70.10;;;;;;5044330;28;20149;-77
2023/09/15 00:05:30;;;;;;;;;;;18.50;70.20;;;;;;5043108;28;19972;-77
2023/09/15 00:07:58;;;;;;;;;;;18.60;70.20;;;;;;5043433;28;20594;-75
2023/09/15 00:10:24;;;;;;;;;;;18.50;70.20;;;;;;5042162;28;25072;-77
2023/09/15 00:12:51;;;;;;;;;;;18.50;70.40;;;;;;5042673;28;20334;-77
2023/09/15 00:15:19;;;;;;;;;;;18.40;70.30;;;;;;5046353;28;20566;-77
2023/09/15 00:17:45;;;;;;;;;;;18.40;70.30;;;;;;5046219;28;19996;-77
2023/09/15 00:20:13;;;;;;;;;;;18.40;70.40;;;;;;5042501;28;19972;-77
2023/09/15 00:22:41;;;;;;;;;;;18.40;70.50;;;;;;5043725;28;20256;-77
2023/09/15 00:25:08;;;;;;;;;;;18.30;70.50;;;;;;5044826;28;20058;-77
2023/09/15 00:27:34;;;;;;;;;;;18.30;70.60;;;;;;5043313;28;20677;-77
2023/09/15 00:30:01;;;;;;;;;;;18.30;70.70;;;;;;5046798;28;20131;-77
2023/09/15 00:32:29;;;;;;;;;;;18.30;70.70;;;;;;5045560;28;25072;-77
2023/09/15 00:34:55;;;;;;;;;;;18.20;70.70;;;;;;5046715;28;20003;-77
2023/09/15 00:37:22;;;;;;;;;;;18.20;70.70;;;;;;5046222;28;20008;-78
2023/09/15 00:39:48;;;;;;;;;;;18.20;70.80;;;;;;5046016;28;25074;-78
2023/09/15 00:42:15;;;;;;;;;;;18.10;70.80;;;;;;5043656;28;20015;-76
2023/09/15 00:44:42;;;;;;;;;;;18.10;70.90;;;;;;5045797;28;20165;-78
2023/09/15 00:47:08;;;;;;;;;;;18.10;70.90;;;;;;5045193;28;20139;-77
2023/09/15 00:49:37;;;;;;;;;;;18.10;70.90;;;;;;5045554;28;20157;-77
2023/09/15 00:52:05;;;;;;;;;;;18.10;71.00;;;;;;5044652;28;20113;-77
2023/09/15 00:54:32;;;;;;;;;;;18.00;71.10;;;;;;5045396;28;20150;-77
2023/09/15 00:56:59;;;;;;;;;;;18.00;71.10;;;;;;5043521;28;25074;-77
2023/09/15 00:59:26;;;;;;;;;;;18.00;71.20;;;;;;5042609;28;20002;-77
2023/09/15 01:01:53;;;;;;;;;;;18.00;71.20;;;;;;5041338;28;20141;-78
2023/09/15 01:04:20;;;;;;;;;;;17.90;71.20;;;;;;5043086;28;20856;-78
2023/09/15 01:06:50;;;;;;;;;;;17.90;71.30;;;;;;5042140;28;20642;-78
2023/09/15 01:09:16;;;;;;;;;;;17.80;71.30;;;;;;5039612;28;20148;-78
2023/09/15 01:11:45;;;;;;;;;;;17.80;71.30;;;;;;5041026;28;20134;-78
2023/09/15 01:14:12;;;;;;;;;;;17.80;71.40;;;;;;5042628;28;20820;-77
2023/09/15 01:16:40;;;;;;;;;;;17.80;71.40;;;;;;5039984;28;20361;-78
2023/09/15 01:19:15;;;;;;;;;;;17.70;71.40;;;;;;5042107;28;20830;-78
2023/09/15 01:21:56;;;;;;;;;;;17.70;71.40;;;;;;5041344;28;20004;-77
2023/09/15 01:24:33;;;;;;;;;;;17.70;71.50;;;;;;5043088;28;20172;-78
2023/09/15 01:27:12;;;;;;;;;;;17.70;71.60;;;;;;5041315;28;25066;-77
2023/09/15 01:29:44;;;;;;;;;;;17.60;71.60;;;;;;5042178;28;20031;-78
2023/09/15 01:32:12;;;;;;;;;;;17.60;71.60;;;;;;5038212;28;20135;-78
2023/09/15 01:34:39;;;;;;;;;;;17.60;71.70;;;;;;5042371;28;20109;-78
2023/09/15 01:37:05;;;;;;;;;;;17.60;71.80;;;;;;5042864;28;25078;-78
2023/09/15 01:39:32;;;;;;;;;;;17.60;71.90;;;;;;5041584;28;20025;-77
2023/09/15 01:41:59;;;;;;;;;;;17.50;71.80;;;;;;5041600;28;20522;-77
2023/09/15 01:44:25;;;;;;;;;;;17.50;71.90;;;;;;5042644;28;20012;-78
2023/09/15 01:46:54;;;;;;;;;;;17.50;71.90;;;;;;5044621;28;20183;-78
2023/09/15 01:49:21;;;;;;;;;;;17.40;71.90;;;;;;5041685;28;20141;-78
2023/09/15 01:51:48;;;;;;;;;;;17.40;72.00;;;;;;5044596;28;20135;-78
2023/09/15 01:54:15;;;;;;;;;;;17.40;72.00;;;;;;5044456;28;25060;-77
2023/09/15 01:56:42;;;;;;;;;;;17.40;72.00;;;;;;5044401;28;19985;-78
2023/09/15 01:59:08;;;;;;;;;;;17.40;72.10;;;;;;5044687;28;20145;-78
2023/09/15 02:01:35;;;;;;;;;;;17.40;72.10;;;;;;5043775;28;20136;-77
2023/09/15 02:04:03;;;;;;;;;;;17.30;72.10;;;;;;5043610;28;20170;-78
2023/09/15 02:06:30;;;;;;;;;;;17.30;72.10;;;;;;5040172;28;25076;-77
2023/09/15 02:08:56;;;;;;;;;;;17.30;72.20;;;;;;5042484;28;19995;-78
2023/09/15 02:11:23;;;;;;;;;;;17.20;72.20;;;;;;5043191;28;20161;-78
2023/09/15 02:13:49;;;;;;;;;;;17.20;72.10;;;;;;5042718;28;19989;-78
2023/09/15 02:16:16;;;;;;;;;;;17.20;72.20;;;;;;5041260;28;20195;-77
2023/09/15 02:18:43;;;;;;;;;;;17.20;72.20;;;;;;5042471;28;20177;-78
2023/09/15 02:21:11;;;;;;;;;;;17.20;72.30;;;;;;5038233;28;20598;-77
2023/09/15 02:23:37;;;;;;;;;;;17.10;72.30;;;;;;5041789;28;19992;-75
2023/09/15 02:26:05;;;;;;;;;;;17.20;72.40;;;;;;5041914;28;20179;-75
2023/09/15 02:28:32;;;;;;;;;;;17.10;72.40;;;;;;5040774;28;20116;-78
2023/09/15 02:30:58;;;;;;;;;;;17.10;72.40;;;;;;5041095;28;20181;-77
2023/09/15 02:33:25;;;;;;;;;;;17.00;72.40;;;;;;5041479;28;19987;-77
2023/09/15 02:35:52;;;;;;;;;;;17.00;72.40;;;;;;5041111;28;25138;-78
2023/09/15 02:38:20;;;;;;;;;;;17.00;72.40;;;;;;5040238;28;20722;-78
2023/09/15 02:40:46;;;;;;;;;;;17.00;72.50;;;;;;5040284;28;20156;-78
2023/09/15 02:43:13;;;;;;;;;;;17.00;72.50;;;;;;5041728;28;20009;-77
2023/09/15 02:45:39;;;;;;;;;;;17.00;72.50;;;;;;5040725;28;25082;-77
2023/09/15 02:48:06;;;;;;;;;;;17.00;72.50;;;;;;5042384;28;20001;-77
2023/09/15 02:50:33;;;;;;;;;;;16.90;72.50;;;;;;5042465;28;20136;-77
2023/09/15 02:53:00;;;;;;;;;;;16.90;72.60;;;;;;5040822;28;20175;-75
2023/09/15 02:55:28;;;;;;;;;;;16.90;72.70;;;;;;5040110;28;20088;-77
2023/09/15 02:57:55;;;;;;;;;;;16.90;72.70;;;;;;5039230;28;20122;-76
2023/09/15 03:00:22;;;;;;;;;;;16.80;72.70;;;;;;5036261;28;19974;-77
2023/09/15 03:02:48;;;;;;;;;;;16.80;72.70;;;;;;5040612;28;25074;-78
2023/09/15 03:05:15;;;;;;;;;;;16.80;72.80;;;;;;5040602;28;19982;-77
2023/09/15 03:07:42;;;;;;;;;;;16.80;72.80;;;;;;5042498;28;20102;-77
2023/09/15 03:10:09;;;;;;;;;;;16.70;72.80;;;;;;5040459;28;20650;-76
2023/09/15 03:12:37;;;;;;;;;;;16.80;73.00;;;;;;5038977;28;20057;-75
2023/09/15 03:15:05;;;;;;;;;;;16.70;73.00;;;;;;5040618;28;20091;-78
2023/09/15 03:17:32;;;;;;;;;;;16.70;73.00;;;;;;5042687;28;20173;-76
2023/09/15 03:19:58;;;;;;;;;;;16.60;73.00;;;;;;5041611;28;20686;-78
2023/09/15 03:22:27;;;;;;;;;;;16.60;73.00;;;;;;5045990;28;20121;-77
2023/09/15 03:24:53;;;;;;;;;;;16.60;73.10;;;;;;5045942;28;20034;-77
2023/09/15 03:27:20;;;;;;;;;;;16.60;73.20;;;;;;5046145;28;20128;-77
2023/09/15 03:29:48;;;;;;;;;;;16.60;73.20;;;;;;5043936;28;25169;-77
2023/09/15 03:32:14;;;;;;;;;;;16.60;73.30;;;;;;5046433;28;19986;-77
2023/09/15 03:34:41;;;;;;;;;;;16.60;73.30;;;;;;5045914;28;19991;-77
2023/09/15 03:37:07;;;;;;;;;;;16.50;73.30;;;;;;5046321;28;25070;-78
2023/09/15 03:39:34;;;;;;;;;;;16.50;73.40;;;;;;5046302;28;20093;-77
2023/09/15 03:42:01;;;;;;;;;;;16.50;73.40;;;;;;5046247;28;21256;-77
2023/09/15 03:44:27;;;;;;;;;;;16.50;73.50;;;;;;5046206;28;25076;-77
2023/09/15 03:46:55;;;;;;;;;;;16.50;73.50;;;;;;5044254;28;20051;-77
2023/09/15 03:49:21;;;;;;;;;;;16.40;73.60;;;;;;5043195;28;20505;-77
2023/09/15 03:51:48;;;;;;;;;;;16.40;73.50;;;;;;5042950;28;25072;-77
2023/09/15 03:54:14;;;;;;;;;;;16.40;73.50;;;;;;5046269;28;19988;-77
2023/09/15 03:56:41;;;;;;;;;;;16.40;73.60;;;;;;5045330;28;25108;-77
2023/09/15 03:59:08;;;;;;;;;;;16.40;73.60;;;;;;5044619;28;20011;-77
2023/09/15 04:01:34;;;;;;;;;;;16.30;73.50;;;;;;5044239;28;25061;-76
2023/09/15 04:04:02;;;;;;;;;;;16.30;73.60;;;;;;5044344;28;20547;-77
2023/09/15 04:06:30;;;;;;;;;;;16.30;73.60;;;;;;5042468;28;20205;-78
2023/09/15 04:08:57;;;;;;;;;;;16.30;74.00;;;;;;5043635;28;20199;-78
2023/09/15 04:11:23;;;;;;;;;;;16.30;73.70;;;;;;5041600;28;20094;-77
2023/09/15 04:13:50;;;;;;;;;;;16.30;73.70;;;;;;5045227;28;19939;-77
2023/09/15 04:16:17;;;;;;;;;;;16.20;73.70;;;;;;5042206;28;19951;-77
2023/09/15 04:18:43;;;;;;;;;;;16.20;73.70;;;;;;5040424;28;19965;-75
2023/09/15 04:21:11;;;;;;;;;;;16.20;73.80;;;;;;5045140;28;20026;-77
2023/09/15 04:23:38;;;;;;;;;;;16.20;73.90;;;;;;5043587;28;19951;-77
2023/09/15 04:26:04;;;;;;;;;;;16.20;74.00;;;;;;5047100;28;20310;-78
2023/09/15 04:28:31;;;;;;;;;;;16.10;73.90;;;;;;5036673;28;20082;-78
2023/09/15 04:30:57;;;;;;;;;;;16.10;73.90;;;;;;5044866;28;19955;-77
2023/09/15 04:33:24;;;;;;;;;;;16.10;74.00;;;;;;5044703;28;19977;-78
2023/09/15 04:35:51;;;;;;;;;;;16.10;74.00;;;;;;5040847;28;20099;-77
2023/09/15 04:38:19;;;;;;;;;;;16.10;74.30;;;;;;5043261;28;20477;-77
2023/09/15 04:40:46;;;;;;;;;;;16.00;74.10;;;;;;5044573;28;25078;-76
2023/09/15 04:43:16;;;;;;;;;;;16.00;74.10;;;;;;5045453;28;20090;-77
2023/09/15 04:45:43;;;;;;;;;;;16.00;74.20;;;;;;5043251;28;20146;-77
2023/09/15 04:48:09;;;;;;;;;;;16.00;74.20;;;;;;5044408;28;19973;-77
2023/09/15 04:50:37;;;;;;;;;;;16.00;74.30;;;;;;5042185;28;20133;-75
2023/09/15 04:53:04;;;;;;;;;;;16.00;74.30;;;;;;5044935;28;20606;-76
2023/09/15 04:55:32;;;;;;;;;;;15.90;74.20;;;;;;5045328;28;20165;-77
2023/09/15 04:57:59;;;;;;;;;;;16.00;74.40;;;;;;5044839;28;20130;-76
2023/09/15 05:00:26;;;;;;;;;;;15.90;74.40;;;;;;5044648;28;20059;-77
2023/09/15 05:02:53;;;;;;;;;;;15.80;74.40;;;;;;5039211;28;20101;-77
2023/09/15 05:05:20;;;;;;;;;;;15.90;74.50;;;;;;5042037;28;20085;-77
2023/09/15 05:07:46;;;;;;;;;;;15.90;74.60;;;;;;5040042;28;20108;-77
2023/09/15 05:10:13;;;;;;;;;;;15.80;74.50;;;;;;5044770;28;20120;-76
2023/09/15 05:12:40;;;;;;;;;;;15.80;74.60;;;;;;5041831;28;20101;-75
2023/09/15 05:15:07;;;;;;;;;;;15.80;74.60;;;;;;5043000;28;20120;-76
2023/09/15 05:17:35;;;;;;;;;;;15.80;74.70;;;;;;5042897;28;25092;-77
2023/09/15 05:20:01;;;;;;;;;;;15.80;74.80;;;;;;5041981;28;19974;-77
2023/09/15 05:22:28;;;;;;;;;;;15.70;74.70;;;;;;5044011;28;20106;-77
2023/09/15 05:24:55;;;;;;;;;;;15.70;74.70;;;;;;5040572;28;20121;-77
2023/09/15 05:27:21;;;;;;;;;;;15.70;74.90;;;;;;5040392;28;19987;-77
2023/09/15 05:29:50;;;;;;;;;;;15.70;74.90;;;;;;5045024;28;20101;-77
2023/09/15 05:32:17;;;;;;;;;;;15.70;74.90;;;;;;5045058;28;20132;-75
2023/09/15 05:34:43;;;;;;;;;;;15.70;75.00;;;;;;5043602;28;19973;-77
2023/09/15 05:37:10;;;;;;;;;;;15.70;75.00;;;;;;5042714;28;20122;-77
2023/09/15 05:39:36;;;;;;;;;;;15.60;75.00;;;;;;5040852;28;20113;-77
2023/09/15 05:42:03;;;;;;;;;;;15.60;75.10;;;;;;5040507;28;20130;-78
2023/09/15 05:44:30;;;;;;;;;;;15.60;75.20;;;;;;5041335;28;20857;-78
2023/09/15 05:46:59;;;;;;;;;;;15.60;75.20;;;;;;5035677;28;20121;-77
2023/09/15 05:49:26;;;;;;;;;;;15.60;75.20;;;;;;5042526;28;19980;-77
2023/09/15 05:51:52;;;;;;;;;;;15.60;75.30;;;;;;5038991;28;20113;-77
2023/09/15 05:54:19;;;;;;;;;;;15.60;75.40;;;;;;5044698;28;20137;-78
2023/09/15 05:56:46;;;;;;;;;;;15.50;75.40;;;;;;5041009;28;20084;-78
2023/09/15 05:59:12;;;;;;;;;;;15.50;75.50;;;;;;5042458;28;20374;-78
2023/09/15 06:01:39;;;;;;;;;;;15.50;75.50;;;;;;5040624;28;20141;-78
2023/09/15 06:04:07;;;;;;;;;;;15.50;75.60;;;;;;5042143;28;25062;-78
2023/09/15 06:06:34;;;;;;;;;;;15.50;75.70;;;;;;5044163;28;19974;-72
2023/09/15 06:09:00;;;;;;;;;;;15.50;75.80;;;;;;5040576;28;19989;-73
2023/09/15 06:11:27;;;;;;;;;;;15.50;75.90;;;;;;5042386;28;19973;-73
2023/09/15 06:13:53;;;;;;;;;;;15.50;76.00;;;;;;5042762;28;19996;-73
2023/09/15 06:16:20;;;;;;;;;;;15.40;76.00;;;;;;5039478;28;20103;-72
2023/09/15 06:18:47;;;;;;;;;;;15.40;76.10;;;;;;4990929;28;20152;-73
2023/09/15 06:21:15;;;;;;;;;;;15.40;76.20;;;;;;5000785;28;20091;-73
2023/09/15 06:23:41;;;;;;;;;;;15.40;76.30;;;;;;4961470;28;20178;-72
2023/09/15 06:26:08;;;;;;;;;;;15.40;76.40;;;;;;4954461;28;20096;-70
2023/09/15 06:28:35;;;;;;;;;;;15.40;76.50;;;;;;4956154;28;20101;-73
2023/09/15 06:31:01;;;;;;;;;;;15.40;76.60;;;;;;4985066;28;20112;-73
2023/09/15 06:33:28;;;;;;;;;;;15.30;76.60;;;;;;5023648;28;20265;-73
2023/09/15 06:35:55;;;;;;;;;;;15.40;76.80;;;;;;5038787;28;19982;-73
2023/09/15 06:38:23;;;;;;;;;;;15.40;76.90;;;;;;5043421;28;20312;-73
2023/09/15 06:40:50;;;;;;;;;;;15.30;76.90;;;;;;5041366;28;20160;-73
2023/09/15 06:43:16;;;;;;;;;;;15.30;77.10;;;;;;5041546;28;20446;-71
2023/09/15 06:45:43;;;;;;;;;;;15.40;77.20;;;;;;5042629;28;20153;-70
2023/09/15 06:48:09;;;;;;;;;;;15.30;77.30;;;;;;5041826;28;20103;-72
2023/09/15 06:50:36;;;;;;;;;;;15.30;77.40;;;;;;5041848;28;20125;-73
2023/09/15 06:53:02;;;;;;;;;;;15.30;77.50;;;;;;5042690;28;20116;-73
2023/09/15 06:55:30;;;;;;;;;;;15.30;77.50;;;;;;5046461;28;20533;-73
2023/09/15 06:57:57;;;;;;;;;;;15.30;77.70;;;;;;5045497;28;25060;-73
2023/09/15 07:00:24;;;;;;;;;;;15.30;77.80;;;;;;5040985;28;19976;-74
2023/09/15 07:02:50;;;;;;;;;;;15.30;77.90;;;;;;5046486;28;20084;-71
2023/09/15 07:05:17;;;;;;;;;;;15.30;78.00;;;;;;5045359;28;20961;-73
2023/09/15 07:07:43;;;;;;;;;;;15.30;78.10;;;;;;5045692;28;20826;-72
2023/09/15 07:10:10;;;;;;;;;;;15.30;78.20;;;;;;5044723;28;20115;-73
2023/09/15 07:12:38;;;;;;;;;;;15.30;78.30;;;;;;5041658;28;20522;-72
2023/09/15 07:15:05;;;;;;;;;;;15.30;78.30;;;;;;5046613;28;20099;-73
2023/09/15 07:17:31;;;;;;;;;;;15.30;78.30;;;;;;5045843;28;20649;-73
2023/09/15 07:19:58;;;;;;;;;;;15.30;78.40;;;;;;5046062;28;20579;-70
2023/09/15 07:22:26;;;;;;;;;;;15.30;78.50;;;;;;5045722;28;20112;-72
2023/09/15 07:24:53;;;;;;;;;;;15.30;78.60;;;;;;5044367;28;25104;-73
2023/09/15 07:27:19;;;;;;;;;;;15.30;78.80;;;;;;5041205;28;19974;-73
2023/09/15 07:29:47;;;;;;;;;;;15.30;78.90;;;;;;5046319;28;20081;-73
2023/09/15 07:32:15;;;;;;;;;;;15.30;79.00;;;;;;5043102;28;25179;-73
2023/09/15 07:34:42;;;;;;;;;;;15.30;79.10;;;;;;5045271;28;19974;-71
2023/09/15 07:37:08;;;;;;;;;;;15.30;79.20;;;;;;5046152;28;20124;-70
2023/09/15 07:39:35;;;;;;;;;;;15.40;79.30;;;;;;5046548;28;20117;-73
2023/09/15 07:42:02;;;;;;;;;;;15.30;79.30;;;;;;5045271;28;20406;-70
2023/09/15 07:44:29;;;;;;;;;;;15.40;79.30;;;;;;5042888;28;20181;-77
2023/09/15 07:46:58;;;;;;;;;;;15.40;79.40;;;;;;5043615;28;20096;-73
2023/09/15 07:49:25;;;;;;;;;;;15.40;79.40;;;;;;5045146;28;20159;-74
2023/09/15 07:51:51;;;;;;;;;;;15.40;79.40;;;;;;5042343;28;20108;-75
2023/09/15 07:54:19;;;;;;;;;;;15.40;79.40;;;;;;5044152;28;20122;-75
2023/09/15 07:56:45;;;;;;;;;;;15.40;79.50;;;;;;5037620;28;20101;-78
2023/09/15 07:59:13;;;;;;;;;;;15.40;79.50;;;;;;5037220;28;20092;-77
2023/09/15 08:01:40;;;;;;;;;;;15.50;79.60;;;;;;5043119;28;20103;-77
2023/09/15 08:04:08;;;;;;;;;;;15.50;79.70;;;;;;5048918;28;20114;-78
2023/09/15 08:06:34;;;;;;;;;;;15.40;79.60;;;;;;5047603;28;20086;-78
2023/09/15 08:09:01;;;;;;;;;;;15.50;79.80;;;;;;5046004;28;20116;-78
2023/09/15 08:11:27;;;;;;;;;;;15.50;79.90;;;;;;5042870;28;22173;-77
2023/09/15 08:13:54;;;;;;;;;;;15.50;79.90;;;;;;5046755;28;20146;-78
2023/09/15 08:16:20;;;;;;;;;;;15.60;80.00;;;;;;5043599;28;20127;-79
2023/09/15 08:18:47;;;;;;;;;;;15.60;80.00;;;;;;5044881;28;20464;-78
2023/09/15 08:21:15;;;;;;;;;;;15.60;80.00;;;;;;5045021;28;20123;-78
2023/09/15 08:23:41;;;;;;;;;;;15.60;80.10;;;;;;5045715;28;20146;-79
2023/09/15 08:26:08;;;;;;;;;;;15.70;80.20;;;;;;5039895;28;20144;-78
2023/09/15 08:28:34;;;;;;;;;;;15.70;80.10;;;;;;5044159;28;20162;-78
2023/09/15 08:31:01;;;;;;;;;;;15.70;79.90;;;;;;5043612;28;20155;-78
2023/09/15 08:33:28;;;;;;;;;;;15.80;80.10;;;;;;5040898;28;19982;-78
2023/09/15 08:35:54;;;;;;;;;;;15.90;80.30;;;;;;5036859;28;20536;-78
2023/09/15 08:38:23;;;;;;;;;;;15.90;80.10;;;;;;5032176;28;20150;-78
2023/09/15 08:40:51;;;;;;;;;;;16.00;79.90;;;;;;5034333;28;19989;-79
2023/09/15 08:43:19;;;;;;;;;;;16.00;79.60;;;;;;5032718;28;20156;-79
2023/09/15 08:45:45;;;;;;;;;;;16.10;79.70;;;;;;5035909;28;25080;-78
2023/09/15 08:48:14;;;;;;;;;;;16.10;79.70;;;;;;5042547;28;20007;-78
2023/09/15 08:50:41;;;;;;;;;;;16.10;79.50;;;;;;5043622;28;20110;-80
2023/09/15 08:53:08;;;;;;;;;;;16.20;79.40;;;;;;5041795;28;19984;-82
2023/09/15 08:55:36;;;;;;;;;;;16.30;79.30;;;;;;5043479;28;20490;-71
2023/09/15 08:58:04;;;;;;;;;;;16.30;79.10;;;;;;5040939;28;20440;-70
2023/09/15 09:00:32;;;;;;;;;;;16.40;79.00;;;;;;5043873;28;22447;-72
2023/09/15 09:02:59;;;;;;;;;;;16.40;78.80;;;;;;5044782;28;25079;-72
2023/09/15 09:05:27;;;;;;;;;;;16.50;78.80;;;;;;5042020;28;20476;-71
2023/09/15 09:07:54;;;;;;;;;;;16.50;78.60;;;;;;5043853;28;25065;-70
2023/09/15 09:10:22;;;;;;;;;;;16.60;78.90;;;;;;5041597;28;20073;-72
2023/09/15 09:12:49;;;;;;;;;;;16.70;78.80;;;;;;5042752;28;20152;-72
2023/09/15 09:15:16;;;;;;;;;;;16.70;78.50;;;;;;5041709;28;19968;-71
2023/09/15 09:17:43;;;;;;;;;;;16.80;78.40;;;;;;5043053;28;19971;-72
2023/09/15 09:20:22;;;;;;;;;;;16.80;78.10;;;;;;5044351;28;20132;-72
2023/09/15 09:22:49;;;;;;;;;;;16.90;78.30;;;;;;5041878;28;19995;-69
2023/09/15 09:25:15;;;;;;;;;;;17.00;78.30;;;;;;5042017;28;25127;-72
2023/09/15 09:27:42;;;;;;;;;;;17.00;78.00;;;;;;5042785;28;20425;-71
2023/09/15 09:30:11;;;;;;;;;;;17.10;78.30;;;;;;5042445;28;20133;-71
2023/09/15 09:32:38;;;;;;;;;;;17.10;78.20;;;;;;5043731;28;25081;-72
2023/09/15 09:35:04;;;;;;;;;;;17.30;78.20;;;;;;5043332;28;19970;-73
2023/09/15 09:37:31;;;;;;;;;;;17.30;77.80;;;;;;5043596;28;20262;-72
2023/09/15 09:39:59;;;;;;;;;;;17.30;77.50;;;;;;5042551;28;20141;-69
2023/09/15 09:42:28;;;;;;;;;;;17.40;77.40;;;;;;5040176;28;20608;-69
2023/09/15 09:44:55;;;;;;;;;;;17.50;77.30;;;;;;5042701;28;19977;-72
2023/09/15 09:47:25;;;;;;;;;;;17.50;77.40;;;;;;5040049;28;20150;-72
2023/09/15 09:49:52;;;;;;;;;;;17.60;77.70;;;;;;5045646;28;19979;-72
2023/09/15 09:52:19;;;;;;;;;;;17.70;77.50;;;;;;5043483;28;20081;-72
2023/09/15 09:54:49;;;;;;;;;;;17.70;77.40;;;;;;5043891;28;20557;-72
2023/09/15 09:57:15;;;;;;;;;;;17.80;77.30;;;;;;5043097;28;20149;-72
2023/09/15 09:59:43;;;;;;;;;;;17.90;77.30;;;;;;5042509;28;20155;-72
2023/09/15 10:02:11;;;;;;;;;;;18.00;77.30;;;;;;5039407;28;19982;-71
2023/09/15 10:04:39;;;;;;;;;;;18.00;78.10;;;;;;5042902;28;20145;-71
2023/09/15 10:07:05;;;;;;;;;;;18.10;77.20;;;;;;5041347;28;19972;-71
2023/09/15 10:09:32;;;;;;;;;;;18.20;77.10;;;;;;5042493;28;20123;-72
2023/09/15 10:11:59;;;;;;;;;;;18.20;76.90;;;;;;5042234;28;20579;-72
2023/09/15 10:14:26;;;;;;;;;;;18.30;77.50;;;;;;5041372;28;20136;-72
2023/09/15 10:16:53;;;;;;;;;;;18.40;76.70;;;;;;5041847;28;19974;-72
2023/09/15 10:19:20;;;;;;;;;;;18.40;76.50;;;;;;5020081;28;20096;-73
2023/09/15 10:21:48;;;;;;;;;;;18.50;76.40;;;;;;4965517;28;20135;-71
2023/09/15 10:24:16;;;;;;;;;;;18.60;76.40;;;;;;4974496;28;20101;-69
2023/09/15 10:26:43;;;;;;;;;;;18.60;76.20;;;;;;4984649;28;20671;-71
2023/09/15 10:29:11;;;;;;;;;;;18.70;76.20;;;;;;4985365;28;20694;-71
2023/09/15 10:31:41;;;;;;;;;;;18.80;76.10;;;;;;4985251;28;20478;-72
2023/09/15 10:34:07;;;;;;;;;;;18.80;75.80;;;;;;4981896;28;20120;-71
2023/09/15 10:36:34;;;;;;;;;;;18.90;75.70;;;;;;4963851;28;19972;-72
2023/09/15 10:39:12;;;;;;;;;;;19.00;75.60;;;;;;4980422;28;20191;-72
2023/09/15 10:41:39;;;;;;;;;;;19.00;75.50;;;;;;5041879;28;20639;-72
2023/09/15 10:44:05;;;;;;;;;;;19.10;75.20;;;;;;5041393;28;20517;-71
2023/09/15 10:46:36;;;;;;;;;;;19.20;74.90;;;;;;5031791;28;20110;-72
2023/09/15 10:49:18;;;;;;;;;;;19.30;75.00;;;;;;5039689;28;25061;-69
2023/09/15 10:51:53;;;;;;;;;;;19.30;74.90;;;;;;5040775;28;20318;-71
2023/09/15 10:54:22;;;;;;;;;;;19.40;74.50;;;;;;5012126;28;20523;-72
2023/09/15 10:56:49;;;;;;;;;;;19.50;74.30;;;;;;4972375;28;19960;-72
2023/09/15 10:59:16;;;;;;;;;;;19.50;73.90;;;;;;4969771;28;20463;-73
2023/09/15 11:01:44;;;;;;;;;;;19.60;73.60;;;;;;4962534;28;20200;-72
2023/09/15 11:04:11;;;;;;;;;;;19.70;73.50;;;;;;4974178;28;20145;-73
2023/09/15 11:06:37;;;;;;;;;;;19.70;73.30;;;;;;4978324;28;19977;-71
2023/09/15 11:09:05;;;;;;;;;;;19.90;73.20;;;;;;4971108;28;20436;-68
2023/09/15 11:11:33;;;;;;;;;;;19.90;72.90;;;;;;4978224;28;25103;-72
2023/09/15 11:14:01;;;;;;;;;;;20.00;72.80;;;;;;4988536;28;20655;-73
2023/09/15 11:16:28;;;;;;;;;;;20.00;72.60;;;;;;4989420;28;19971;-72
2023/09/15 11:18:56;;;;;;;;;;;20.10;72.60;;;;;;4995518;28;20124;-73
2023/09/15 11:21:23;;;;;;;;;;;20.20;72.40;;;;;;4996438;28;25156;-71
2023/09/15 11:23:50;;;;;;;;;;;20.20;72.20;;;;;;4999187;28;20286;-71
2023/09/15 11:26:17;;;;;;;;;;;20.30;72.10;;;;;;4996790;28;25077;-70
2023/09/15 11:28:44;;;;;;;;;;;20.30;72.00;;;;;;5001142;28;25138;-71
2023/09/15 11:31:11;;;;;;;;;;;20.40;72.00;;;;;;4996351;28;25065;-71
2023/09/15 11:33:38;;;;;;;;;;;20.50;71.90;;;;;;5000362;28;20190;-72
2023/09/15 11:36:05;;;;;;;;;;;20.50;71.60;;;;;;4998038;28;25059;-72
2023/09/15 11:38:32;;;;;;;;;;;20.60;71.40;;;;;;5000151;28;20199;-71
2023/09/15 11:40:59;;;;;;;;;;;20.60;71.30;;;;;;5001077;28;20211;-72
2023/09/15 11:43:25;;;;;;;;;;;20.70;71.10;;;;;;5002819;28;25052;-72
2023/09/15 11:45:53;;;;;;;;;;;20.80;71.10;;;;;;5000508;28;20752;-72
2023/09/15 11:48:21;;;;;;;;;;;20.90;70.70;;;;;;5000006;28;20298;-72
2023/09/15 11:50:48;;;;;;;;;;;21.00;71.00;;;;;;5000516;28;25087;-72
2023/09/15 11:53:22;;;;;;;;;;;21.10;70.70;;;;;;4998565;28;20187;-72
2023/09/15 11:55:51;;;;;;;;;;;21.10;70.70;;;;;;4999581;28;25030;-72
2023/09/15 11:58:18;;;;;;;;;;;21.20;70.50;;;;;;5002031;28;25067;-70
2023/09/15 12:00:45;;;;;;;;;;;21.30;71.60;;;;;;5000230;28;25076;-74
2023/09/15 12:03:13;;;;;;;;;;;21.70;70.60;;;;;;5001228;28;20112;-73
2023/09/15 12:05:40;;;;;;;;;;;21.90;70.10;;;;;;4999655;28;19997;-74
2023/09/15 12:08:07;;;;;;;;;;;22.00;69.40;;;;;;4998589;28;20651;-74
2023/09/15 12:10:34;;;;;;;;;;;22.00;69.40;;;;;;4996450;28;25079;-74
2023/09/15 12:13:00;;;;;;;;;;;22.00;69.30;;;;;;5000719;28;20157;-74
2023/09/15 12:15:27;;;;;;;;;;;22.00;69.30;;;;;;5002439;28;20214;-72
2023/09/15 12:17:55;;;;;;;;;;;22.00;69.40;;;;;;5003583;28;20779;-74
2023/09/15 12:20:24;;;;;;;;;;;22.00;69.30;;;;;;5002715;28;25166;-75
2023/09/15 12:22:51;;;;;;;;;;;22.00;69.40;;;;;;4997875;28;20208;-74
2023/09/15 12:25:18;;;;;;;;;;;22.00;69.30;;;;;;5000991;28;20256;-74
2023/09/15 12:27:44;;;;;;;;;;;22.10;69.50;;;;;;5003531;28;20154;-73
2023/09/15 12:30:11;;;;;;;;;;;22.10;69.00;;;;;;5001403;28;25070;-74
2023/09/15 12:32:38;;;;;;;;;;;22.20;69.10;;;;;;5004216;28;20199;-73
2023/09/15 12:35:09;;;;;;;;;;;22.20;68.90;;;;;;5000732;28;20663;-74
2023/09/15 12:37:40;;;;;;;;;;;22.20;69.10;;;;;;5003490;28;20706;-73
2023/09/15 12:40:07;;;;;;;;;;;22.30;68.90;;;;;;4998359;28;20351;-75
2023/09/15 12:42:33;;;;;;;;;;;22.30;68.80;;;;;;5005473;28;25144;-73
2023/09/15 12:45:00;;;;;;;;;;;22.40;68.60;;;;;;5001299;28;20373;-74
2023/09/15 12:47:26;;;;;;;;;;;22.50;68.60;;;;;;5000534;28;25158;-73
2023/09/15 12:49:53;;;;;;;;;;;22.50;68.30;;;;;;5003309;28;25062;-74
2023/09/15 12:52:19;;;;;;;;;;;22.50;68.00;;;;;;4999899;28;20175;-74
2023/09/15 12:54:49;;;;;;;;;;;22.60;68.10;;;;;;5003445;28;25067;-74
2023/09/15 12:57:15;;;;;;;;;;;22.70;67.90;;;;;;4995661;28;25071;-74
2023/09/15 12:59:42;;;;;;;;;;;22.70;67.50;;;;;;5003256;28;25070;-74
2023/09/15 13:02:09;;;;;;;;;;;22.80;67.60;;;;;;5003523;28;25078;-74
2023/09/15 13:04:35;;;;;;;;;;;22.80;67.30;;;;;;4997598;28;25080;-74
2023/09/15 13:07:02;;;;;;;;;;;22.80;67.30;;;;;;4995965;28;25079;-74
2023/09/15 13:09:30;;;;;;;;;;;22.90;67.30;;;;;;4994334;28;25128;-72
2023/09/15 13:11:58;;;;;;;;;;;23.00;67.60;;;;;;4993709;28;25056;-74
2023/09/15 13:14:25;;;;;;;;;;;23.00;66.50;;;;;;4993484;28;25107;-71
2023/09/15 13:16:51;;;;;;;;;;;23.00;67.10;;;;;;4993430;28;25067;-72
2023/09/15 13:19:18;;;;;;;;;;;23.10;67.00;;;;;;4993335;28;25063;-72
2023/09/15 13:21:44;;;;;;;;;;;23.10;66.70;;;;;;4995367;28;25205;-74
2023/09/15 13:24:11;;;;;;;;;;;23.10;66.60;;;;;;4992256;28;20230;-75
2023/09/15 13:26:38;;;;;;;;;;;23.10;66.60;;;;;;4994546;28;25059;-74
2023/09/15 13:29:06;;;;;;;;;;;23.10;66.00;;;;;;4994425;28;25114;-74
2023/09/15 13:31:33;;;;;;;;;;;23.20;66.50;;;;;;4994751;28;25056;-74
2023/09/15 13:34:00;;;;;;;;;;;23.20;66.50;;;;;;4994796;28;25063;-74
2023/09/15 13:36:26;;;;;;;;;;;23.30;66.50;;;;;;4994850;28;25159;-74
2023/09/15 13:38:53;;;;;;;;;;;23.30;66.20;;;;;;4993901;28;25070;-74
2023/09/15 13:41:20;;;;;;;;;;;23.40;65.90;;;;;;4995266;28;25049;-75
2023/09/15 13:43:46;;;;;;;;;;;23.40;66.30;;;;;;4996425;28;20216;-74
2023/09/15 13:46:14;;;;;;;;;;;23.40;66.30;;;;;;4995665;28;20180;-74
2023/09/15 13:48:41;;;;;;;;;;;23.50;66.30;;;;;;4994774;28;20213;-74
2023/09/15 13:51:08;;;;;;;;;;;23.50;66.30;;;;;;4991866;28;20675;-74
2023/09/15 13:53:35;;;;;;;;;;;23.60;66.10;;;;;;4995232;28;25093;-74
2023/09/15 13:56:03;;;;;;;;;;;23.60;65.90;;;;;;4995658;28;25058;-74
2023/09/15 13:58:30;;;;;;;;;;;23.60;66.00;;;;;;4995450;28;25065;-74
2023/09/15 14:00:58;;;;;;;;;;;23.70;65.90;;;;;;4995788;28;25075;-76
2023/09/15 14:03:26;;;;;;;;;;;23.70;66.00;;;;;;4995874;28;25084;-73
2023/09/15 14:05:53;;;;;;;;;;;23.80;65.90;;;;;;4990957;28;20181;-74
2023/09/15 14:08:19;;;;;;;;;;;23.80;66.00;;;;;;4996403;28;20745;-74
2023/09/15 14:10:46;;;;;;;;;;;23.90;65.50;;;;;;4993826;28;25105;-74
2023/09/15 14:13:15;;;;;;;;;;;23.90;65.60;;;;;;4994116;28;25131;-75
2023/09/15 14:15:42;;;;;;;;;;;23.90;65.50;;;;;;4994286;28;25078;-75